Latest Coastal Weather Observations for Milingimbi

IDD60701

Issued at 11:41 am CST Monday 20 November 2017 (issued every 10 minutes, with the page automatically refreshed every 10 minutes)

About coastal observations | Map of coastal stations | Coastal observations for NT | Marine services | Other Formats
Station Details ID: 014404 Name: MILINGIMBI AIRPORT Lat: -12.09 Lon: 134.89 Height: 15.0 m
Data from the previous 72 hours. | See also: Recent months at Milingimbi
Date/Time
CST
Temp
°C
Wind Pressure Rain since
9am
mm
Weather Cloud Vis
km
Sea
Height
m
Swell
Dir  Spd
kts
Gust
kts
hPa Trend Height
m
Period
s
Dir
20/11:30am 32.4 ENE 6 10 1009.9 - 0.0 - - - - - - -
20/11:00am 31.4 N 5 9 1010.2 - 0.0 - - - - - - -
20/10:30am 31.7 N 6 10 1010.4 - 0.0 - - - - - - -
20/10:00am 31.5 N 5 8 1010.5 - 0.0 - - - - - - -
20/09:30am 30.6 N 5 9 1010.4 - 0.0 - - - - - - -
20/09:00am 30.4 N 4 8 1010.1 - 0.0 - - - - - - -
20/08:30am 30.6 NNE 4 7 1010.3 - 0.0 - - - - - - -
20/08:00am 30.2 NNW 3 5 1010.1 - 0.0 - - - - - - -
20/07:30am 29.9 N 2 6 1009.9 - 0.0 - - - - - - -
20/07:00am 28.4 CALM 0 0 1009.4 - 0.0 - - - - - - -
20/06:30am 26.4 CALM 0 0 1009.0 - 0.0 - - - - - - -
20/06:00am 26.0 CALM 0 0 1008.3 - 0.0 - - - - - - -
20/05:30am 26.1 WNW 1 3 1008.2 - 0.0 - - - - - - -
20/05:00am 26.3 CALM 0 0 1008.2 - 0.0 - - - - - - -
20/04:30am 26.5 CALM 0 0 1008.1 - 0.0 - - - - - - -
20/04:00am 26.7 CALM 0 0 1008.2 - 0.0 - - - - - - -
20/03:30am 26.8 CALM 0 0 1007.9 - 0.0 - - - - - - -
20/03:00am 27.1 CALM 0 0 1007.5 - 0.0 - - - - - - -
20/02:30am 27.3 CALM 0 0 1008.0 - 0.0 - - - - - - -
20/02:00am 27.8 NNW 2 4 1008.4 - 0.0 - - - - - - -
20/01:30am 28.2 NNW 2 3 1008.9 - 0.0 - - - - - - -
20/01:00am 28.3 NW 3 5 1009.1 - 0.0 - - - - - - -
20/12:30am 28.1 NW 3 4 1009.4 - 0.0 - - - - - - -
20/12:00am 27.5 NW 4 6 1009.6 - 0.0 - - - - - - -
 
Date/Time
CST
Temp
°C
Wind Pressure Rain since
9am
mm
Weather Cloud Vis
km
Sea
Height
m
Swell
Dir  Spd
kts
Gust
kts
hPa Trend Height
m
Period
s
Dir
19/11:30pm 28.0 CALM 0 0 1010.3 - 0.0 - - - - - - -
19/11:00pm 28.4 CALM 0 0 1010.5 - 0.0 - - - - - - -
19/10:30pm 28.6 NNW 1 4 1010.2 - 0.0 - - - - - - -
19/10:00pm 28.6 NW 3 5 1009.9 - 0.0 - - - - - - -
19/09:30pm 28.5 NNW 3 4 1009.6 - 0.0 - - - - - - -
19/09:00pm 27.9 CALM 0 3 1009.2 - 0.0 - - - - - - -
19/08:30pm 28.4 CALM 0 0 1009.3 - 0.0 - - - - - - -
19/08:00pm 28.7 CALM 0 0 1008.9 - 0.0 - - - - - - -
19/07:30pm 29.0 NNW 2 5 1008.1 - 0.0 - - - - - - -
19/07:00pm 29.3 N 3 5 1007.7 - 0.0 - - - - - - -
19/06:30pm 29.5 N 4 6 1007.4 - 0.0 - - - - - - -
19/06:00pm 29.8 N 5 9 1006.8 - 0.0 - - - - - - -
19/05:30pm 30.7 N 5 9 1006.7 - 0.0 - - - - - - -
19/05:00pm 31.2 NNW 6 9 1006.5 - 0.0 - - - - - - -
19/04:30pm 31.2 N 6 10 1006.4 - 0.0 - - - - - - -
19/04:00pm 31.7 NNW 7 11 1006.7 - 0.0 - - - - - - -
19/03:30pm 31.9 N 7 11 1007.1 - 0.0 - - - - - - -
19/03:00pm 32.5 NNW 7 11 1007.3 - 0.0 - - - - - - -
19/02:30pm 31.6 N 7 11 1007.6 - 0.0 - - - - - - -
19/02:00pm 32.0 N 7 11 1007.9 - 0.0 - - - - - - -
19/01:30pm 32.3 N 7 12 1008.1 - 0.0 - - - - - - -
19/01:00pm 32.1 NNW 7 11 1008.6 - 0.0 - - - - - - -
19/12:30pm 32.3 NNW 7 14 1009.1 - 0.0 - - - - - - -
19/12:00pm 32.3 N 9 13 1009.3 - 0.0 - - - - - - -
19/11:30am 32.1 N 7 12 1009.8 - 0.0 - - - - - - -
19/11:00am 31.5 N 8 12 1009.8 - 0.0 - - - - - - -
19/10:30am 31.0 N 6 11 1009.9 - 0.0 - - - - - - -
19/10:00am 32.4 NNE 6 11 1010.0 - 0.0 - - - - - - -
19/09:30am 31.7 NNE 7 12 1010.2 - 0.0 - - - - - - -
19/09:00am 31.7 NNE 6 9 1009.9 - 0.0 - - - - - - -
19/08:30am 31.3 NNE 6 10 1009.7 - 0.0 - - - - - - -
19/08:00am 30.5 NE 6 8 1009.6 - 0.0 - - - - - - -
19/07:30am 29.9 E 1 5 1009.1 - 0.0 - - - - - - -
19/07:00am 27.3 SSE 3 4 1008.7 - 0.0 - - - - - - -
19/06:30am 26.7 E 1 4 1008.4 - 0.0 - - - - - - -
19/06:00am 26.4 CALM 0 0 1007.8 - 0.0 - - - - - - -
19/05:30am 26.7 CALM 0 0 1007.8 - 0.0 - - - - - - -
19/05:00am 26.5 CALM 0 0 1007.9 - 0.0 - - - - - - -
19/04:30am 26.7 CALM 0 0 1007.8 - 0.0 - - - - - - -
19/04:00am 26.6 CALM 0 0 1007.9 - 0.0 - - - - - - -
19/03:30am 26.9 NE 1 3 1008.0 - 0.0 - - - - - - -
19/03:00am 27.2 CALM 0 0 1007.6 - 0.0 - - - - - - -
19/02:30am 27.6 CALM 0 3 1008.0 - 0.0 - - - - - - -
19/02:00am 27.9 CALM 0 0 1007.9 - 0.0 - - - - - - -
19/01:30am 28.1 NE 1 3 1008.2 - 0.0 - - - - - - -
19/01:00am 28.4 NE 3 5 1008.5 - 0.0 - - - - - - -
19/12:30am 28.5 NE 3 5 1008.7 - 0.0 - - - - - - -
19/12:00am 28.6 NE 5 8 1008.6 - 0.0 - - - - - - -
 
Date/Time
CST
Temp
°C
Wind Pressure Rain since
9am
mm
Weather Cloud Vis
km
Sea
Height
m
Swell
Dir  Spd
kts
Gust
kts
hPa Trend Height
m
Period
s
Dir
18/11:30pm 28.7 NE 4 8 1009.2 - 0.0 - - - - - - -
18/11:00pm 28.7 NE 5 8 1009.3 - 0.0 - - - - - - -
18/10:30pm 28.8 NNE 4 6 1009.5 - 0.0 - - - - - - -
18/10:00pm 28.8 NE 5 7 1009.0 - 0.0 - - - - - - -
18/09:30pm 29.0 NE 6 10 1009.1 - 0.0 - - - - - - -
18/09:00pm 29.0 N 5 7 1008.8 - 0.0 - - - - - - -
18/08:30pm 29.0 NNE 5 10 1008.9 - 0.0 - - - - - - -
18/08:00pm 29.1 N 4 6 1008.3 - 0.0 - - - - - - -
18/07:30pm 29.0 NE 3 5 1008.1 - 0.0 - - - - - - -
18/07:00pm 29.3 NNE 4 6 1007.7 - 0.0 - - - - - - -
18/06:30pm 29.6 ENE 5 7 1007.4 - 0.0 - - - - - - -
18/06:00pm 29.9 NE 5 8 1007.3 - 0.0 - - - - - - -
18/05:30pm 30.7 NE 6 10 1007.3 - 0.0 - - - - - - -
18/05:00pm 31.0 NNE 5 9 1006.4 - 0.0 - - - - - - -
18/04:30pm 31.2 N 7 13 1006.7 - 0.0 - - - - - - -
18/04:00pm 31.7 N 7 13 1006.4 - 0.0 - - - - - - -
18/03:30pm 31.7 N 8 13 1006.8 - 0.0 - - - - - - -
18/03:00pm 32.3 N 8 12 1006.8 - 0.0 - - - - - - -
18/02:30pm 33.1 NNE 8 11 1007.3 - 0.0 - - - - - - -
18/02:00pm 32.4 NNE 7 14 1007.7 - 0.0 - - - - - - -
18/01:30pm 32.6 NE 8 14 1008.1 - 0.0 - - - - - - -
18/01:00pm 32.8 NE 7 12 1008.6 - 0.0 - - - - - - -
18/12:30pm 32.2 ENE 9 14 1009.2 - 0.0 - - - - - - -
18/12:00pm 32.4 ENE 9 14 1009.4 - 0.0 - - - - - - -
18/11:30am 32.3 NE 8 14 1009.9 - 0.0 - - - - - - -
18/11:00am 31.6 ENE 8 13 1010.3 - 0.0 - - - - - - -
18/10:30am 31.4 NE 8 15 1010.7 - 0.0 - - - - - - -
18/10:00am 30.9 E 7 11 1010.6 - 0.0 - - - - - - -
18/09:30am 31.2 ESE 7 10 1010.4 - 0.0 - - - - - - -
18/09:00am 31.5 ESE 7 11 1010.2 - 0.0 - - - - - - -
18/08:30am 30.4 ESE 7 9 1010.2 - 0.0 - - - - - - -
18/08:00am 29.2 SE 7 9 1009.8 - 0.0 - - - - - - -
18/07:30am 28.3 SE 4 6 1009.5 - 0.0 - - - - - - -
18/07:00am 26.7 SSE 5 7 1009.2 - 0.0 - - - - - - -
18/06:30am 25.6 SE 4 6 1008.9 - 0.0 - - - - - - -
18/06:00am 25.3 SSE 4 5 1008.4 - 0.0 - - - - - - -
18/05:30am 25.3 S 5 6 1008.2 - 0.0 - - - - - - -
18/05:00am 25.3 SE 5 6 1008.0 - 0.0 - - - - - - -
18/04:30am 25.3 S 3 5 1007.6 - 0.0 - - - - - - -
18/04:00am 25.3 S 4 5 1007.3 - 0.0 - - - - - - -
18/03:30am 25.5 SSW 5 6 1007.2 - 0.0 - - - - - - -
18/03:00am 25.8 S 5 7 1007.1 - 0.0 - - - - - - -
18/02:30am 26.1 S 5 7 1007.3 - 0.0 - - - - - - -
18/02:00am 26.2 S 4 5 1007.7 - 0.0 - - - - - - -
18/01:30am 26.2 SE 3 4 1008.0 - 0.0 - - - - - - -
18/01:00am 25.9 CALM 0 0 1008.3 - 0.0 - - - - - - -
18/12:30am 26.0 SE 3 4 1009.0 - 0.0 - - - - - - -
18/12:00am 25.9 SSE 4 6 1009.0 - 0.0 - - - - - - -
 
Date/Time
CST
Temp
°C
Wind Pressure Rain since
9am
mm
Weather Cloud Vis
km
Sea
Height
m
Swell
Dir  Spd
kts
Gust
kts
hPa Trend Height
m
Period
s
Dir
17/11:30pm 26.0 SE 4 6 1009.4 - 0.0 - - - - - - -
17/11:00pm 25.8 SSW 3 4 1009.7 - 0.0 - - - - - - -
17/10:30pm 25.9 SW 4 5 1009.7 - 0.0 - - - - - - -
17/10:00pm 25.9 SSW 3 4 1009.5 - 0.0 - - - - - - -
17/09:30pm 26.0 S 4 5 1009.3 - 0.0 - - - - - - -
17/09:00pm 26.1 S 4 7 1009.1 - 0.0 - - - - - - -
17/08:30pm 26.0 SSE 8 12 1009.1 - 0.0 - - - - - - -
17/08:00pm 27.4 SE 8 19 1009.0 - 0.0 - - - - - - -
17/07:30pm 27.9 SSE 6 8 1008.5 - 0.0 - - - - - - -
17/07:00pm 29.1 NNE 5 10 1008.1 - 0.0 - - - - - - -
17/06:30pm 29.3 NNE 6 10 1007.8 - 0.0 - - - - - - -
17/06:00pm 29.7 NNE 7 11 1007.2 - 0.0 - - - - - - -
17/05:30pm 30.1 NNE 5 7 1006.9 - 0.0 - - - - - - -
17/05:00pm 30.6 NNE 7 12 1006.4 - 0.0 - - - - - - -
17/04:30pm 31.2 N 7 13 1006.2 - 0.0 - - - - - - -
17/04:00pm 32.2 NNE 7 12 1006.4 - 0.0 - - - - - - -
17/03:30pm 32.3 NNE 9 14 1006.5 - 0.0 - - - - - - -
17/03:00pm 32.6 NE 9 14 1006.6 - 0.0 - - - - - - -
17/02:30pm 33.0 NNE 9 11 1007.1 - 0.0 - - - - - - -
17/02:00pm 32.5 NE 8 13 1007.5 - 0.0 - - - - - - -
17/01:30pm 32.8 ENE 7 12 1007.7 - 0.0 - - - - - - -
17/01:00pm 32.3 NE 7 13 1008.0 - 0.0 - - - - - - -
17/12:30pm 32.5 NE 6 9 1008.6 - 0.0 - - - - - - -
17/12:00pm 32.4 E 6 9 1009.0 - 0.0 - - - - - - -

Other Formats:

Comma delimited format used in spreadsheet applications
http://www.bom.gov.au/fwo/IDD60701/IDD60701.94140.axf

JavaScript Object Notation format (JSON) in row-major order
http://www.bom.gov.au/fwo/IDD60701/IDD60701.94140.json